sensor_id;sensor_type;location;lat;lon;timestamp;P1;durP1;ratioP1;P2;durP2;ratioP2
8544;SDS011;4310;51.054;6.994;2022-10-22T00:00:09;56.25;;;53.65;;
8544;SDS011;4310;51.054;6.994;2022-10-22T00:01:13;55.55;;;52.73;;
8544;SDS011;4310;51.054;6.994;2022-10-22T00:03:28;56.00;;;53.50;;
8544;SDS011;4310;51.054;6.994;2022-10-22T00:04:32;58.08;;;55.30;;
8544;SDS011;4310;51.054;6.994;2022-10-22T00:05:36;57.10;;;54.20;;
8544;SDS011;4310;51.054;6.994;2022-10-22T00:06:40;57.78;;;54.83;;
8544;SDS011;4310;51.054;6.994;2022-10-22T00:07:44;56.60;;;53.87;;
8544;SDS011;4310;51.054;6.994;2022-10-22T00:08:47;55.45;;;52.50;;
8544;SDS011;4310;51.054;6.994;2022-10-22T00:11:07;57.88;;;55.03;;
8544;SDS011;4310;51.054;6.994;2022-10-22T00:12:11;55.75;;;52.80;;
8544;SDS011;4310;51.054;6.994;2022-10-22T00:13:14;55.65;;;52.75;;
8544;SDS011;4310;51.054;6.994;2022-10-22T00:14:18;55.23;;;52.73;;
8544;SDS011;4310;51.054;6.994;2022-10-22T00:15:22;54.77;;;52.03;;
8544;SDS011;4310;51.054;6.994;2022-10-22T00:16:26;57.15;;;54.27;;
8544;SDS011;4310;51.054;6.994;2022-10-22T00:17:29;55.00;;;52.43;;
8544;SDS011;4310;51.054;6.994;2022-10-22T00:18:33;54.73;;;52.05;;
8544;SDS011;4310;51.054;6.994;2022-10-22T00:19:37;51.88;;;49.25;;
8544;SDS011;4310;51.054;6.994;2022-10-22T00:21:52;53.05;;;50.15;;
8544;SDS011;4310;51.054;6.994;2022-10-22T00:22:56;52.03;;;49.63;;
8544;SDS011;4310;51.054;6.994;2022-10-22T00:25:11;56.05;;;52.80;;
8544;SDS011;4310;51.054;6.994;2022-10-22T00:26:15;52.75;;;50.05;;
8544;SDS011;4310;51.054;6.994;2022-10-22T00:27:18;53.90;;;51.37;;
8544;SDS011;4310;51.054;6.994;2022-10-22T00:28:22;51.23;;;48.73;;
8544;SDS011;4310;51.054;6.994;2022-10-22T00:29:26;51.73;;;49.05;;
8544;SDS011;4310;51.054;6.994;2022-10-22T00:30:30;50.80;;;48.10;;
8544;SDS011;4310;51.054;6.994;2022-10-22T00:31:33;50.30;;;47.90;;
8544;SDS011;4310;51.054;6.994;2022-10-22T00:32:37;51.83;;;49.20;;
8544;SDS011;4310;51.054;6.994;2022-10-22T00:33:41;49.88;;;47.38;;
8544;SDS011;4310;51.054;6.994;2022-10-22T00:34:45;49.45;;;46.83;;
8544;SDS011;4310;51.054;6.994;2022-10-22T00:35:48;50.48;;;48.08;;
8544;SDS011;4310;51.054;6.994;2022-10-22T00:38:04;50.52;;;48.15;;
8544;SDS011;4310;51.054;6.994;2022-10-22T00:39:07;49.48;;;47.05;;
8544;SDS011;4310;51.054;6.994;2022-10-22T00:40:11;51.15;;;48.58;;
8544;SDS011;4310;51.054;6.994;2022-10-22T00:41:15;52.13;;;49.35;;
8544;SDS011;4310;51.054;6.994;2022-10-22T00:42:20;52.40;;;50.00;;
8544;SDS011;4310;51.054;6.994;2022-10-22T00:43:23;52.23;;;49.70;;
8544;SDS011;4310;51.054;6.994;2022-10-22T00:47:00;52.73;;;49.98;;
8544;SDS011;4310;51.054;6.994;2022-10-22T00:48:04;54.13;;;51.42;;
8544;SDS011;4310;51.054;6.994;2022-10-22T00:49:08;55.63;;;52.88;;
8544;SDS011;4310;51.054;6.994;2022-10-22T00:50:13;53.70;;;51.00;;
8544;SDS011;4310;51.054;6.994;2022-10-22T00:52:29;55.60;;;52.98;;
8544;SDS011;4310;51.054;6.994;2022-10-22T00:54:45;54.53;;;51.77;;
8544;SDS011;4310;51.054;6.994;2022-10-22T00:55:49;52.88;;;50.12;;
8544;SDS011;4310;51.054;6.994;2022-10-22T00:58:05;53.38;;;50.58;;
8544;SDS011;4310;51.054;6.994;2022-10-22T01:00:20;52.88;;;50.28;;
8544;SDS011;4310;51.054;6.994;2022-10-22T01:01:25;54.15;;;51.55;;
8544;SDS011;4310;51.054;6.994;2022-10-22T01:02:29;58.02;;;55.00;;
8544;SDS011;4310;51.054;6.994;2022-10-22T01:03:33;57.70;;;54.73;;
8544;SDS011;4310;51.054;6.994;2022-10-22T01:04:37;55.25;;;52.58;;
8544;SDS011;4310;51.054;6.994;2022-10-22T01:06:52;57.05;;;54.10;;
8544;SDS011;4310;51.054;6.994;2022-10-22T01:07:56;53.98;;;51.37;;
8544;SDS011;4310;51.054;6.994;2022-10-22T01:10:20;53.78;;;51.15;;
8544;SDS011;4310;51.054;6.994;2022-10-22T01:11:26;55.05;;;52.35;;
8544;SDS011;4310;51.054;6.994;2022-10-22T01:12:33;54.95;;;52.25;;
8544;SDS011;4310;51.054;6.994;2022-10-22T01:13:40;55.73;;;53.13;;
8544;SDS011;4310;51.054;6.994;2022-10-22T01:14:44;55.38;;;52.43;;
8544;SDS011;4310;51.054;6.994;2022-10-22T01:15:49;55.38;;;52.60;;
8544;SDS011;4310;51.054;6.994;2022-10-22T01:16:56;54.88;;;52.10;;
8544;SDS011;4310;51.054;6.994;2022-10-22T01:18:01;56.00;;;53.20;;
8544;SDS011;4310;51.054;6.994;2022-10-22T01:19:09;55.03;;;52.38;;
8544;SDS011;4310;51.054;6.994;2022-10-22T01:20:17;54.85;;;52.00;;
8544;SDS011;4310;51.054;6.994;2022-10-22T01:21:23;52.43;;;49.63;;
8544;SDS011;4310;51.054;6.994;2022-10-22T01:22:28;56.45;;;53.55;;
8544;SDS011;4310;51.054;6.994;2022-10-22T01:24:50;55.67;;;52.70;;
8544;SDS011;4310;51.054;6.994;2022-10-22T01:27:10;56.30;;;53.57;;
8544;SDS011;4310;51.054;6.994;2022-10-22T01:28:16;56.30;;;53.60;;
8544;SDS011;4310;51.054;6.994;2022-10-22T01:29:20;56.20;;;53.55;;
8544;SDS011;4310;51.054;6.994;2022-10-22T01:30:25;55.03;;;52.33;;
8544;SDS011;4310;51.054;6.994;2022-10-22T01:31:29;55.25;;;52.62;;
8544;SDS011;4310;51.054;6.994;2022-10-22T01:32:34;54.33;;;51.83;;
8544;SDS011;4310;51.054;6.994;2022-10-22T01:33:39;54.08;;;51.40;;
8544;SDS011;4310;51.054;6.994;2022-10-22T01:34:45;53.55;;;50.85;;
8544;SDS011;4310;51.054;6.994;2022-10-22T01:35:48;52.30;;;49.53;;
8544;SDS011;4310;51.054;6.994;2022-10-22T01:36:53;53.28;;;50.65;;
8544;SDS011;4310;51.054;6.994;2022-10-22T01:37:57;51.27;;;48.87;;
8544;SDS011;4310;51.054;6.994;2022-10-22T01:39:02;52.38;;;49.63;;
8544;SDS011;4310;51.054;6.994;2022-10-22T01:40:08;51.15;;;48.38;;
8544;SDS011;4310;51.054;6.994;2022-10-22T01:41:13;50.50;;;48.10;;
8544;SDS011;4310;51.054;6.994;2022-10-22T01:42:16;53.42;;;50.60;;
8544;SDS011;4310;51.054;6.994;2022-10-22T01:43:20;52.60;;;50.08;;
8544;SDS011;4310;51.054;6.994;2022-10-22T01:44:25;52.33;;;49.83;;
8544;SDS011;4310;51.054;6.994;2022-10-22T01:45:29;51.65;;;49.13;;
8544;SDS011;4310;51.054;6.994;2022-10-22T01:47:48;50.83;;;48.13;;
8544;SDS011;4310;51.054;6.994;2022-10-22T01:48:57;50.33;;;47.83;;
8544;SDS011;4310;51.054;6.994;2022-10-22T01:50:03;49.50;;;47.15;;
8544;SDS011;4310;51.054;6.994;2022-10-22T01:51:18;52.93;;;50.33;;
8544;SDS011;4310;51.054;6.994;2022-10-22T01:52:24;53.30;;;50.58;;
8544;SDS011;4310;51.054;6.994;2022-10-22T01:53:31;51.35;;;48.85;;
8544;SDS011;4310;51.054;6.994;2022-10-22T01:54:37;52.50;;;49.85;;
8544;SDS011;4310;51.054;6.994;2022-10-22T01:55:42;50.48;;;47.88;;
8544;SDS011;4310;51.054;6.994;2022-10-22T01:56:50;53.50;;;50.95;;
8544;SDS011;4310;51.054;6.994;2022-10-22T01:58:00;51.25;;;48.55;;
8544;SDS011;4310;51.054;6.994;2022-10-22T01:59:01;52.03;;;49.25;;
8544;SDS011;4310;51.054;6.994;2022-10-22T02:00:05;51.42;;;48.83;;
8544;SDS011;4310;51.054;6.994;2022-10-22T02:01:12;52.58;;;50.17;;
8544;SDS011;4310;51.054;6.994;2022-10-22T02:03:32;53.52;;;50.95;;
8544;SDS011;4310;51.054;6.994;2022-10-22T02:04:37;53.40;;;50.80;;
8544;SDS011;4310;51.054;6.994;2022-10-22T02:05:42;53.45;;;50.65;;
8544;SDS011;4310;51.054;6.994;2022-10-22T02:06:46;54.53;;;51.73;;
8544;SDS011;4310;51.054;6.994;2022-10-22T02:09:03;53.50;;;50.95;;
8544;SDS011;4310;51.054;6.994;2022-10-22T02:10:08;54.25;;;51.35;;
8544;SDS011;4310;51.054;6.994;2022-10-22T02:11:12;52.87;;;50.37;;
8544;SDS011;4310;51.054;6.994;2022-10-22T02:12:17;52.78;;;50.08;;
8544;SDS011;4310;51.054;6.994;2022-10-22T02:13:23;50.55;;;48.20;;
8544;SDS011;4310;51.054;6.994;2022-10-22T02:14:27;50.28;;;47.58;;
8544;SDS011;4310;51.054;6.994;2022-10-22T02:16:43;51.35;;;48.65;;
8544;SDS011;4310;51.054;6.994;2022-10-22T02:17:47;50.90;;;48.00;;
8544;SDS011;4310;51.054;6.994;2022-10-22T02:20:05;54.27;;;51.45;;
8544;SDS011;4310;51.054;6.994;2022-10-22T02:21:09;53.55;;;50.63;;
8544;SDS011;4310;51.054;6.994;2022-10-22T02:22:13;55.08;;;52.27;;
8544;SDS011;4310;51.054;6.994;2022-10-22T02:23:17;55.40;;;52.50;;
8544;SDS011;4310;51.054;6.994;2022-10-22T02:24:20;55.80;;;52.93;;
8544;SDS011;4310;51.054;6.994;2022-10-22T02:25:26;56.25;;;53.38;;
8544;SDS011;4310;51.054;6.994;2022-10-22T02:26:31;56.60;;;53.60;;
8544;SDS011;4310;51.054;6.994;2022-10-22T02:27:37;54.45;;;51.63;;
8544;SDS011;4310;51.054;6.994;2022-10-22T02:28:42;54.80;;;51.77;;
8544;SDS011;4310;51.054;6.994;2022-10-22T02:29:48;53.80;;;51.18;;
8544;SDS011;4310;51.054;6.994;2022-10-22T02:30:53;53.00;;;50.50;;
8544;SDS011;4310;51.054;6.994;2022-10-22T02:31:57;55.03;;;52.20;;
8544;SDS011;4310;51.054;6.994;2022-10-22T02:34:14;50.98;;;48.50;;
8544;SDS011;4310;51.054;6.994;2022-10-22T02:35:20;51.55;;;48.73;;
8544;SDS011;4310;51.054;6.994;2022-10-22T02:37:36;52.03;;;49.48;;
8544;SDS011;4310;51.054;6.994;2022-10-22T02:38:40;52.00;;;49.48;;
8544;SDS011;4310;51.054;6.994;2022-10-22T02:40:55;52.20;;;49.60;;
8544;SDS011;4310;51.054;6.994;2022-10-22T02:42:00;52.73;;;50.00;;
8544;SDS011;4310;51.054;6.994;2022-10-22T02:43:04;53.83;;;51.30;;
8544;SDS011;4310;51.054;6.994;2022-10-22T02:44:09;58.07;;;55.17;;
8544;SDS011;4310;51.054;6.994;2022-10-22T02:45:13;55.15;;;52.27;;
8544;SDS011;4310;51.054;6.994;2022-10-22T02:47:28;58.17;;;55.15;;
8544;SDS011;4310;51.054;6.994;2022-10-22T02:48:32;57.53;;;54.53;;
8544;SDS011;4310;51.054;6.994;2022-10-22T02:49:36;57.83;;;54.90;;
8544;SDS011;4310;51.054;6.994;2022-10-22T02:50:40;53.73;;;51.23;;
8544;SDS011;4310;51.054;6.994;2022-10-22T02:51:43;58.08;;;55.05;;
8544;SDS011;4310;51.054;6.994;2022-10-22T02:52:47;58.40;;;55.50;;
8544;SDS011;4310;51.054;6.994;2022-10-22T02:53:51;58.78;;;55.70;;
8544;SDS011;4310;51.054;6.994;2022-10-22T02:54:54;58.73;;;55.75;;
8544;SDS011;4310;51.054;6.994;2022-10-22T02:57:10;56.58;;;53.75;;
8544;SDS011;4310;51.054;6.994;2022-10-22T02:58:13;57.78;;;54.98;;
8544;SDS011;4310;51.054;6.994;2022-10-22T02:59:17;55.78;;;53.13;;
8544;SDS011;4310;51.054;6.994;2022-10-22T03:00:21;56.33;;;53.73;;
8544;SDS011;4310;51.054;6.994;2022-10-22T03:01:24;58.15;;;55.12;;
8544;SDS011;4310;51.054;6.994;2022-10-22T03:03:39;56.53;;;53.83;;
8544;SDS011;4310;51.054;6.994;2022-10-22T03:04:43;57.55;;;54.67;;
8544;SDS011;4310;51.054;6.994;2022-10-22T03:05:48;58.42;;;55.50;;
8544;SDS011;4310;51.054;6.994;2022-10-22T03:06:52;57.83;;;54.85;;
8544;SDS011;4310;51.054;6.994;2022-10-22T03:07:56;58.05;;;55.25;;
8544;SDS011;4310;51.054;6.994;2022-10-22T03:08:59;58.35;;;55.40;;
8544;SDS011;4310;51.054;6.994;2022-10-22T03:10:04;58.13;;;55.23;;
8544;SDS011;4310;51.054;6.994;2022-10-22T03:11:07;60.45;;;57.30;;
8544;SDS011;4310;51.054;6.994;2022-10-22T03:13:22;59.23;;;56.20;;
8544;SDS011;4310;51.054;6.994;2022-10-22T03:14:26;56.35;;;53.52;;
8544;SDS011;4310;51.054;6.994;2022-10-22T03:15:30;58.38;;;55.15;;
8544;SDS011;4310;51.054;6.994;2022-10-22T03:16:34;57.87;;;55.17;;
8544;SDS011;4310;51.054;6.994;2022-10-22T03:17:37;57.23;;;54.25;;
8544;SDS011;4310;51.054;6.994;2022-10-22T03:18:41;56.02;;;53.28;;
8544;SDS011;4310;51.054;6.994;2022-10-22T03:19:45;56.53;;;53.63;;
8544;SDS011;4310;51.054;6.994;2022-10-22T03:20:48;55.73;;;52.90;;
8544;SDS011;4310;51.054;6.994;2022-10-22T03:21:52;56.53;;;53.65;;
8544;SDS011;4310;51.054;6.994;2022-10-22T03:22:57;56.80;;;53.90;;
8544;SDS011;4310;51.054;6.994;2022-10-22T03:24:01;55.67;;;52.73;;
8544;SDS011;4310;51.054;6.994;2022-10-22T03:25:06;51.88;;;49.20;;
8544;SDS011;4310;51.054;6.994;2022-10-22T03:26:11;54.55;;;51.55;;
8544;SDS011;4310;51.054;6.994;2022-10-22T03:28:27;53.50;;;50.83;;
8544;SDS011;4310;51.054;6.994;2022-10-22T03:29:32;56.70;;;53.75;;
8544;SDS011;4310;51.054;6.994;2022-10-22T03:30:36;57.05;;;54.08;;
8544;SDS011;4310;51.054;6.994;2022-10-22T03:31:40;59.17;;;56.13;;
8544;SDS011;4310;51.054;6.994;2022-10-22T03:32:44;59.23;;;56.40;;
8544;SDS011;4310;51.054;6.994;2022-10-22T03:33:48;58.92;;;56.05;;
8544;SDS011;4310;51.054;6.994;2022-10-22T03:34:51;56.63;;;53.78;;
8544;SDS011;4310;51.054;6.994;2022-10-22T03:35:55;57.00;;;54.10;;
8544;SDS011;4310;51.054;6.994;2022-10-22T03:36:59;58.45;;;55.55;;
8544;SDS011;4310;51.054;6.994;2022-10-22T03:38:03;58.30;;;55.30;;
8544;SDS011;4310;51.054;6.994;2022-10-22T03:39:07;55.83;;;53.00;;
8544;SDS011;4310;51.054;6.994;2022-10-22T03:41:23;57.48;;;54.48;;
8544;SDS011;4310;51.054;6.994;2022-10-22T03:42:27;56.48;;;53.58;;
8544;SDS011;4310;51.054;6.994;2022-10-22T03:43:31;59.38;;;56.37;;
8544;SDS011;4310;51.054;6.994;2022-10-22T03:44:36;57.50;;;54.33;;
8544;SDS011;4310;51.054;6.994;2022-10-22T03:45:40;59.03;;;55.90;;
8544;SDS011;4310;51.054;6.994;2022-10-22T03:46:44;57.83;;;54.73;;
8544;SDS011;4310;51.054;6.994;2022-10-22T03:47:48;59.35;;;56.30;;
8544;SDS011;4310;51.054;6.994;2022-10-22T03:48:51;55.52;;;52.67;;
8544;SDS011;4310;51.054;6.994;2022-10-22T03:49:55;58.52;;;55.73;;
8544;SDS011;4310;51.054;6.994;2022-10-22T03:52:11;57.38;;;54.60;;
8544;SDS011;4310;51.054;6.994;2022-10-22T03:53:15;58.17;;;55.23;;
8544;SDS011;4310;51.054;6.994;2022-10-22T03:54:19;56.37;;;53.48;;
8544;SDS011;4310;51.054;6.994;2022-10-22T03:55:23;58.52;;;55.63;;
8544;SDS011;4310;51.054;6.994;2022-10-22T03:56:26;54.00;;;51.30;;
8544;SDS011;4310;51.054;6.994;2022-10-22T03:57:30;55.80;;;52.90;;
8544;SDS011;4310;51.054;6.994;2022-10-22T03:58:34;56.28;;;53.35;;
8544;SDS011;4310;51.054;6.994;2022-10-22T03:59:38;56.37;;;53.58;;
8544;SDS011;4310;51.054;6.994;2022-10-22T04:01:54;55.45;;;52.75;;
8544;SDS011;4310;51.054;6.994;2022-10-22T04:02:57;55.55;;;52.65;;
8544;SDS011;4310;51.054;6.994;2022-10-22T04:04:01;56.70;;;53.80;;
8544;SDS011;4310;51.054;6.994;2022-10-22T04:05:06;55.70;;;52.75;;
8544;SDS011;4310;51.054;6.994;2022-10-22T04:07:21;54.23;;;51.40;;
8544;SDS011;4310;51.054;6.994;2022-10-22T04:08:25;55.10;;;52.25;;
8544;SDS011;4310;51.054;6.994;2022-10-22T04:09:30;51.95;;;49.35;;
8544;SDS011;4310;51.054;6.994;2022-10-22T04:10:34;52.73;;;49.93;;
8544;SDS011;4310;51.054;6.994;2022-10-22T04:11:37;53.77;;;51.17;;
8544;SDS011;4310;51.054;6.994;2022-10-22T04:12:41;53.35;;;50.50;;
8544;SDS011;4310;51.054;6.994;2022-10-22T04:13:45;50.85;;;48.00;;
8544;SDS011;4310;51.054;6.994;2022-10-22T04:16:06;52.75;;;49.73;;
8544;SDS011;4310;51.054;6.994;2022-10-22T04:17:09;52.27;;;49.58;;
8544;SDS011;4310;51.054;6.994;2022-10-22T04:19:24;50.98;;;48.28;;
8544;SDS011;4310;51.054;6.994;2022-10-22T04:21:40;48.30;;;45.70;;
8544;SDS011;4310;51.054;6.994;2022-10-22T04:22:43;50.15;;;47.58;;
8544;SDS011;4310;51.054;6.994;2022-10-22T04:23:47;51.08;;;48.33;;
8544;SDS011;4310;51.054;6.994;2022-10-22T04:26:03;49.83;;;47.13;;
8544;SDS011;4310;51.054;6.994;2022-10-22T04:27:08;51.75;;;49.08;;
8544;SDS011;4310;51.054;6.994;2022-10-22T04:29:25;53.63;;;50.60;;
8544;SDS011;4310;51.054;6.994;2022-10-22T04:30:28;50.67;;;47.98;;
8544;SDS011;4310;51.054;6.994;2022-10-22T04:31:32;51.88;;;48.87;;
8544;SDS011;4310;51.054;6.994;2022-10-22T04:32:36;50.63;;;47.73;;
8544;SDS011;4310;51.054;6.994;2022-10-22T04:33:40;52.55;;;49.77;;
8544;SDS011;4310;51.054;6.994;2022-10-22T04:34:43;53.38;;;50.33;;
8544;SDS011;4310;51.054;6.994;2022-10-22T04:35:47;54.23;;;51.30;;
8544;SDS011;4310;51.054;6.994;2022-10-22T04:36:51;53.35;;;50.45;;
8544;SDS011;4310;51.054;6.994;2022-10-22T04:39:06;51.50;;;48.63;;
8544;SDS011;4310;51.054;6.994;2022-10-22T04:40:11;53.28;;;50.38;;
8544;SDS011;4310;51.054;6.994;2022-10-22T04:41:15;53.77;;;50.90;;
8544;SDS011;4310;51.054;6.994;2022-10-22T04:42:19;50.48;;;47.78;;
8544;SDS011;4310;51.054;6.994;2022-10-22T04:43:23;53.38;;;50.35;;
8544;SDS011;4310;51.054;6.994;2022-10-22T04:44:27;53.30;;;50.60;;
8544;SDS011;4310;51.054;6.994;2022-10-22T04:45:31;51.85;;;48.80;;
8544;SDS011;4310;51.054;6.994;2022-10-22T04:46:35;54.55;;;51.55;;
8544;SDS011;4310;51.054;6.994;2022-10-22T04:47:39;54.53;;;51.60;;
8544;SDS011;4310;51.054;6.994;2022-10-22T04:48:43;55.25;;;52.00;;
8544;SDS011;4310;51.054;6.994;2022-10-22T04:49:47;54.00;;;51.00;;
8544;SDS011;4310;51.054;6.994;2022-10-22T04:50:51;49.90;;;47.15;;
8544;SDS011;4310;51.054;6.994;2022-10-22T04:53:06;55.05;;;51.90;;
8544;SDS011;4310;51.054;6.994;2022-10-22T04:54:10;54.95;;;52.05;;
8544;SDS011;4310;51.054;6.994;2022-10-22T04:55:13;51.18;;;48.30;;
8544;SDS011;4310;51.054;6.994;2022-10-22T04:56:18;53.28;;;50.08;;
8544;SDS011;4310;51.054;6.994;2022-10-22T04:58:34;51.85;;;48.85;;
8544;SDS011;4310;51.054;6.994;2022-10-22T04:59:38;53.63;;;50.75;;
8544;SDS011;4310;51.054;6.994;2022-10-22T05:00:42;49.38;;;46.58;;
8544;SDS011;4310;51.054;6.994;2022-10-22T05:01:45;50.75;;;47.85;;
8544;SDS011;4310;51.054;6.994;2022-10-22T05:02:49;52.80;;;49.90;;
8544;SDS011;4310;51.054;6.994;2022-10-22T05:03:53;55.43;;;52.43;;
8544;SDS011;4310;51.054;6.994;2022-10-22T05:04:57;54.18;;;51.00;;
8544;SDS011;4310;51.054;6.994;2022-10-22T05:06:01;52.08;;;49.27;;
8544;SDS011;4310;51.054;6.994;2022-10-22T05:07:05;53.63;;;50.78;;
8544;SDS011;4310;51.054;6.994;2022-10-22T05:08:08;56.53;;;53.40;;
8544;SDS011;4310;51.054;6.994;2022-10-22T05:09:14;55.85;;;52.67;;
8544;SDS011;4310;51.054;6.994;2022-10-22T05:10:18;57.50;;;54.50;;
8544;SDS011;4310;51.054;6.994;2022-10-22T05:11:22;59.53;;;56.18;;
8544;SDS011;4310;51.054;6.994;2022-10-22T05:12:26;59.77;;;56.50;;
8544;SDS011;4310;51.054;6.994;2022-10-22T05:13:31;58.02;;;54.70;;
8544;SDS011;4310;51.054;6.994;2022-10-22T05:14:35;59.60;;;56.30;;
8544;SDS011;4310;51.054;6.994;2022-10-22T05:16:53;56.58;;;53.52;;
8544;SDS011;4310;51.054;6.994;2022-10-22T05:17:58;61.48;;;57.88;;
8544;SDS011;4310;51.054;6.994;2022-10-22T05:19:01;63.15;;;59.60;;
8544;SDS011;4310;51.054;6.994;2022-10-22T05:20:07;63.68;;;60.10;;
8544;SDS011;4310;51.054;6.994;2022-10-22T05:21:11;63.35;;;59.80;;
8544;SDS011;4310;51.054;6.994;2022-10-22T05:22:15;62.03;;;58.55;;
8544;SDS011;4310;51.054;6.994;2022-10-22T05:23:22;63.68;;;59.58;;
8544;SDS011;4310;51.054;6.994;2022-10-22T05:24:26;64.97;;;61.33;;
8544;SDS011;4310;51.054;6.994;2022-10-22T05:25:30;65.78;;;62.00;;
8544;SDS011;4310;51.054;6.994;2022-10-22T05:26:34;69.03;;;65.30;;
8544;SDS011;4310;51.054;6.994;2022-10-22T05:27:37;71.40;;;67.47;;
8544;SDS011;4310;51.054;6.994;2022-10-22T05:28:41;67.92;;;64.22;;
8544;SDS011;4310;51.054;6.994;2022-10-22T05:29:45;67.72;;;64.00;;
8544;SDS011;4310;51.054;6.994;2022-10-22T05:30:52;72.58;;;68.52;;
8544;SDS011;4310;51.054;6.994;2022-10-22T05:33:07;71.50;;;67.60;;
8544;SDS011;4310;51.054;6.994;2022-10-22T05:35:22;69.33;;;65.30;;
8544;SDS011;4310;51.054;6.994;2022-10-22T05:37:37;76.62;;;72.15;;
8544;SDS011;4310;51.054;6.994;2022-10-22T05:39:52;74.80;;;70.67;;
8544;SDS011;4310;51.054;6.994;2022-10-22T05:41:00;75.37;;;71.17;;
8544;SDS011;4310;51.054;6.994;2022-10-22T05:42:04;72.97;;;68.95;;
8544;SDS011;4310;51.054;6.994;2022-10-22T05:43:07;74.55;;;70.45;;
8544;SDS011;4310;51.054;6.994;2022-10-22T05:44:11;75.10;;;70.75;;
8544;SDS011;4310;51.054;6.994;2022-10-22T05:45:15;75.87;;;71.67;;
8544;SDS011;4310;51.054;6.994;2022-10-22T05:47:30;80.38;;;75.87;;
8544;SDS011;4310;51.054;6.994;2022-10-22T05:48:34;78.90;;;74.50;;
8544;SDS011;4310;51.054;6.994;2022-10-22T05:49:39;77.03;;;72.67;;
8544;SDS011;4310;51.054;6.994;2022-10-22T05:50:43;80.05;;;75.92;;
8544;SDS011;4310;51.054;6.994;2022-10-22T05:51:47;80.38;;;76.07;;
8544;SDS011;4310;51.054;6.994;2022-10-22T05:52:51;77.53;;;73.17;;
8544;SDS011;4310;51.054;6.994;2022-10-22T05:53:55;79.65;;;75.32;;
8544;SDS011;4310;51.054;6.994;2022-10-22T05:54:59;81.87;;;77.47;;
8544;SDS011;4310;51.054;6.994;2022-10-22T05:57:14;87.47;;;82.85;;
8544;SDS011;4310;51.054;6.994;2022-10-22T05:58:18;91.82;;;87.10;;
8544;SDS011;4310;51.054;6.994;2022-10-22T05:59:22;90.97;;;86.02;;
8544;SDS011;4310;51.054;6.994;2022-10-22T06:00:25;94.15;;;89.28;;
8544;SDS011;4310;51.054;6.994;2022-10-22T06:01:30;94.25;;;88.97;;
8544;SDS011;4310;51.054;6.994;2022-10-22T06:02:34;93.62;;;88.72;;
8544;SDS011;4310;51.054;6.994;2022-10-22T06:03:38;95.20;;;89.77;;
8544;SDS011;4310;51.054;6.994;2022-10-22T06:04:41;96.32;;;91.45;;
8544;SDS011;4310;51.054;6.994;2022-10-22T06:05:45;93.27;;;88.37;;
8544;SDS011;4310;51.054;6.994;2022-10-22T06:06:49;91.70;;;86.90;;
8544;SDS011;4310;51.054;6.994;2022-10-22T06:07:53;97.97;;;92.80;;
8544;SDS011;4310;51.054;6.994;2022-10-22T06:10:12;93.87;;;88.67;;
8544;SDS011;4310;51.054;6.994;2022-10-22T06:11:17;95.65;;;90.28;;
8544;SDS011;4310;51.054;6.994;2022-10-22T06:12:21;92.90;;;88.15;;
8544;SDS011;4310;51.054;6.994;2022-10-22T06:14:36;91.67;;;86.97;;
8544;SDS011;4310;51.054;6.994;2022-10-22T06:15:40;88.47;;;83.70;;
8544;SDS011;4310;51.054;6.994;2022-10-22T06:16:43;86.57;;;81.97;;
8544;SDS011;4310;51.054;6.994;2022-10-22T06:17:47;89.28;;;84.35;;
8544;SDS011;4310;51.054;6.994;2022-10-22T06:20:02;79.27;;;74.83;;
8544;SDS011;4310;51.054;6.994;2022-10-22T06:21:08;81.57;;;77.10;;
8544;SDS011;4310;51.054;6.994;2022-10-22T06:22:12;80.22;;;75.83;;
8544;SDS011;4310;51.054;6.994;2022-10-22T06:23:15;79.05;;;74.87;;
8544;SDS011;4310;51.054;6.994;2022-10-22T06:24:19;75.72;;;71.62;;
8544;SDS011;4310;51.054;6.994;2022-10-22T06:25:23;73.15;;;69.05;;
8544;SDS011;4310;51.054;6.994;2022-10-22T06:26:27;78.90;;;74.77;;
8544;SDS011;4310;51.054;6.994;2022-10-22T06:27:31;81.87;;;77.78;;
8544;SDS011;4310;51.054;6.994;2022-10-22T06:28:35;79.22;;;75.17;;
8544;SDS011;4310;51.054;6.994;2022-10-22T06:29:38;76.05;;;72.15;;
8544;SDS011;4310;51.054;6.994;2022-10-22T06:30:42;78.30;;;74.20;;
8544;SDS011;4310;51.054;6.994;2022-10-22T06:31:46;77.03;;;72.92;;
8544;SDS011;4310;51.054;6.994;2022-10-22T06:32:50;79.58;;;75.28;;
8544;SDS011;4310;51.054;6.994;2022-10-22T06:33:53;75.10;;;71.10;;
8544;SDS011;4310;51.054;6.994;2022-10-22T06:34:58;76.55;;;72.72;;
8544;SDS011;4310;51.054;6.994;2022-10-22T06:36:05;73.90;;;70.10;;
8544;SDS011;4310;51.054;6.994;2022-10-22T06:37:09;72.80;;;69.10;;
8544;SDS011;4310;51.054;6.994;2022-10-22T06:38:14;73.02;;;69.10;;
8544;SDS011;4310;51.054;6.994;2022-10-22T06:39:18;70.00;;;66.33;;
8544;SDS011;4310;51.054;6.994;2022-10-22T06:40:22;67.97;;;64.40;;
8544;SDS011;4310;51.054;6.994;2022-10-22T06:41:26;67.15;;;63.65;;
8544;SDS011;4310;51.054;6.994;2022-10-22T06:42:29;67.70;;;64.10;;
8544;SDS011;4310;51.054;6.994;2022-10-22T06:44:44;60.75;;;57.40;;
8544;SDS011;4310;51.054;6.994;2022-10-22T06:45:48;60.30;;;57.20;;
8544;SDS011;4310;51.054;6.994;2022-10-22T06:48:04;55.92;;;53.02;;
8544;SDS011;4310;51.054;6.994;2022-10-22T06:49:10;55.15;;;52.15;;
8544;SDS011;4310;51.054;6.994;2022-10-22T06:50:14;50.12;;;47.53;;
8544;SDS011;4310;51.054;6.994;2022-10-22T06:51:18;51.30;;;48.60;;
8544;SDS011;4310;51.054;6.994;2022-10-22T06:52:22;50.23;;;47.53;;
8544;SDS011;4310;51.054;6.994;2022-10-22T06:53:26;49.30;;;46.63;;
8544;SDS011;4310;51.054;6.994;2022-10-22T06:54:30;48.00;;;45.40;;
8544;SDS011;4310;51.054;6.994;2022-10-22T06:55:34;48.92;;;46.28;;
8544;SDS011;4310;51.054;6.994;2022-10-22T06:56:38;48.83;;;46.18;;
8544;SDS011;4310;51.054;6.994;2022-10-22T06:57:42;51.33;;;48.42;;
8544;SDS011;4310;51.054;6.994;2022-10-22T06:58:46;50.75;;;48.02;;
8544;SDS011;4310;51.054;6.994;2022-10-22T06:59:50;48.05;;;45.55;;
8544;SDS011;4310;51.054;6.994;2022-10-22T07:00:59;50.03;;;47.33;;
8544;SDS011;4310;51.054;6.994;2022-10-22T07:02:03;51.65;;;48.87;;
8544;SDS011;4310;51.054;6.994;2022-10-22T07:03:07;50.38;;;47.73;;
8544;SDS011;4310;51.054;6.994;2022-10-22T07:05:23;48.92;;;46.53;;
8544;SDS011;4310;51.054;6.994;2022-10-22T07:07:38;47.30;;;44.80;;
8544;SDS011;4310;51.054;6.994;2022-10-22T07:08:42;47.25;;;44.75;;
8544;SDS011;4310;51.054;6.994;2022-10-22T07:09:46;46.20;;;43.87;;
8544;SDS011;4310;51.054;6.994;2022-10-22T07:10:50;46.10;;;43.70;;
8544;SDS011;4310;51.054;6.994;2022-10-22T07:11:54;46.10;;;43.75;;
8544;SDS011;4310;51.054;6.994;2022-10-22T07:12:58;45.50;;;42.65;;
8544;SDS011;4310;51.054;6.994;2022-10-22T07:14:02;44.55;;;41.85;;
8544;SDS011;4310;51.054;6.994;2022-10-22T07:15:06;42.48;;;40.08;;
8544;SDS011;4310;51.054;6.994;2022-10-22T07:17:22;42.45;;;39.98;;
8544;SDS011;4310;51.054;6.994;2022-10-22T07:18:26;42.80;;;40.20;;
8544;SDS011;4310;51.054;6.994;2022-10-22T07:19:29;41.95;;;39.75;;
8544;SDS011;4310;51.054;6.994;2022-10-22T07:20:33;40.33;;;38.23;;
8544;SDS011;4310;51.054;6.994;2022-10-22T07:21:38;39.70;;;37.40;;
8544;SDS011;4310;51.054;6.994;2022-10-22T07:22:42;39.85;;;37.63;;
8544;SDS011;4310;51.054;6.994;2022-10-22T07:23:45;41.18;;;39.03;;
8544;SDS011;4310;51.054;6.994;2022-10-22T07:24:49;37.10;;;35.23;;
8544;SDS011;4310;51.054;6.994;2022-10-22T07:27:04;30.72;;;28.70;;
8544;SDS011;4310;51.054;6.994;2022-10-22T07:29:19;24.85;;;23.25;;
8544;SDS011;4310;51.054;6.994;2022-10-22T07:30:23;22.00;;;20.43;;
8544;SDS011;4310;51.054;6.994;2022-10-22T07:31:27;19.48;;;18.07;;
8544;SDS011;4310;51.054;6.994;2022-10-22T07:32:31;18.85;;;17.45;;
8544;SDS011;4310;51.054;6.994;2022-10-22T07:33:35;19.67;;;18.00;;
8544;SDS011;4310;51.054;6.994;2022-10-22T07:34:39;16.48;;;15.30;;
8544;SDS011;4310;51.054;6.994;2022-10-22T07:36:54;14.50;;;13.43;;